Time;durP1;ratioP1;P1;durP2;ratioP2;P2;SDS_P1;SDS_P2;PMS_P1;PMS_P2;Temp;Humidity;BMP_temperature;BMP_pressure;BME280_temperature;BME280_humidity;BME280_pressure;Samples;Min_cycle;Max_cycle;Signal;HPM_P1;HPM_P2
2022/12/17 13:06:42;;;;;;;78.45;37.95;;;;;;;-2.04;100.00;102588.59;5050084;28;20068;-54
2022/12/17 13:09:14;;;;;;;79.85;38.15;;;;;;;-2.04;100.00;102586.00;5047462;28;20060;-52
2022/12/17 13:11:41;;;;;;;73.18;37.33;;;;;;;-2.02;100.00;102586.00;5043250;28;20484;-51
2022/12/17 13:14:16;;;;;;;81.65;39.53;;;;;;;-1.98;100.00;102579.94;5043065;28;20037;-52
2022/12/17 13:16:50;;;;;;;75.47;38.65;;;;;;;-1.97;100.00;102579.94;5040713;28;20029;-52
2022/12/17 13:19:33;;;;;;;82.53;39.08;;;;;;;-1.95;100.00;102583.44;5042748;28;20036;-52
2022/12/17 13:22:13;;;;;;;78.85;38.35;;;;;;;-1.90;100.00;102583.44;5047941;28;20367;-52
2022/12/17 13:24:40;;;;;;;77.32;38.92;;;;;;;-1.93;100.00;102593.84;5033192;28;20103;-54
2022/12/17 13:27:29;;;;;;;80.10;39.38;;;;;;;-1.93;100.00;102586.03;5045429;28;20052;-52
2022/12/17 13:29:54;;;;;;;72.15;36.38;;;;;;;-1.95;100.00;102577.34;5047494;28;20041;-53
2022/12/17 13:32:30;;;;;;;73.28;36.88;;;;;;;-2.00;100.00;102574.72;5044824;28;20394;-52
2022/12/17 13:35:18;;;;;;;79.03;37.25;;;;;;;-2.02;100.00;102575.59;5049105;28;20037;-52
2022/12/17 13:37:55;;;;;;;73.57;35.42;;;;;;;-2.02;100.00;102578.19;5043044;28;20108;-53
2022/12/17 13:40:58;;;;;;;80.55;36.80;;;;;;;-2.02;100.00;102570.38;5035197;28;20045;-53
2022/12/17 13:43:29;;;;;;;72.03;36.22;;;;;;;-2.02;100.00;102573.00;5028493;28;20132;-52
2022/12/17 13:45:55;;;;;;;78.65;37.50;;;;;;;-2.05;100.00;102572.13;5037857;28;20483;-54
2022/12/17 13:48:24;;;;;;;78.30;37.00;;;;;;;-2.04;100.00;102565.19;5029868;28;20116;-51
2022/12/17 13:50:58;;;;;;;76.72;36.47;;;;;;;-1.99;100.00;102570.41;5036897;28;20516;-53
2022/12/17 13:53:24;;;;;;;76.18;37.00;;;;;;;-1.99;100.00;102568.66;5050756;28;20359;-53
2022/12/17 13:55:52;;;;;;;73.63;37.13;;;;;;;-1.99;100.00;102576.47;5052014;28;20025;-52
2022/12/17 13:58:32;;;;;;;76.43;38.95;;;;;;;-1.97;100.00;102574.75;5050107;28;20029;-55
2022/12/17 14:01:09;;;;;;;78.95;38.92;;;;;;;-1.95;100.00;102579.94;5052167;28;20056;-54
2022/12/17 14:03:36;;;;;;;84.05;38.78;;;;;;;-1.93;100.00;102581.72;5050257;28;20033;-52
2022/12/17 14:06:07;;;;;;;79.10;36.55;;;;;;;-1.94;100.00;102581.69;5041983;28;20386;-52
2022/12/17 14:08:33;;;;;;;81.72;39.05;;;;;;;-1.94;100.00;102582.56;5051608;28;20037;-52
2022/12/17 14:13:45;;;;;;;79.93;38.63;;;;;;;-1.98;100.00;102578.22;5042969;28;20115;-52
2022/12/17 14:16:15;;;;;;;77.28;36.95;;;;;;;-2.03;100.00;102581.66;5051594;28;20095;-52
2022/12/17 14:18:46;;;;;;;85.00;38.05;;;;;;;-2.07;100.00;102583.38;5051418;28;20033;-51
2022/12/17 14:21:12;;;;;;;70.20;35.50;;;;;;;-2.07;100.00;102586.84;5051839;28;20021;-52
2022/12/17 14:23:39;;;;;;;72.68;36.22;;;;;;;-2.08;100.00;102587.72;5049931;28;20037;-52
2022/12/17 14:26:04;;;;;;;74.03;34.83;;;;;;;-2.14;100.00;102587.69;5049436;28;20116;-53
2022/12/17 14:28:36;;;;;;;77.53;36.53;;;;;;;-2.17;100.00;102587.66;5035511;28;20104;-53
2022/12/17 14:31:18;;;;;;;80.07;36.60;;;;;;;-2.16;100.00;102586.81;5044697;28;20561;-54
2022/12/17 14:33:45;;;;;;;75.90;35.97;;;;;;;-2.15;100.00;102593.78;5045265;28;20076;-52
2022/12/17 14:36:22;;;;;;;79.35;36.05;;;;;;;-2.16;100.00;102589.44;5051678;28;20073;-53
2022/12/17 14:38:58;;;;;;;79.65;35.90;;;;;;;-2.14;100.00;102589.44;5050481;28;20021;-51
2022/12/17 14:44:20;;;;;;;82.47;36.63;;;;;;;-2.09;100.00;102591.19;5051186;28;20501;-52
2022/12/17 14:46:46;;;;;;;77.97;34.58;;;;;;;-2.12;100.00;102604.19;5048883;28;20098;-52
2022/12/17 14:49:20;;;;;;;82.20;36.13;;;;;;;-2.16;100.00;102605.03;5038642;28;20491;-53
2022/12/17 14:51:47;;;;;;;77.90;35.00;;;;;;;-2.23;100.00;102608.50;5032009;28;20025;-52
2022/12/17 14:54:13;;;;;;;76.47;36.58;;;;;;;-2.23;100.00;102608.50;5042221;28;20106;-53
2022/12/17 14:56:39;;;;;;;87.38;38.58;;;;;;;-2.22;100.00;102609.34;5044206;28;20479;-54
2022/12/17 14:59:20;;;;;;;80.10;37.60;;;;;;;-2.25;100.00;102599.78;5050408;28;20087;-53
2022/12/17 15:01:45;;;;;;;84.72;37.92;;;;;;;-2.27;100.00;102610.19;5047278;28;20060;-53
2022/12/17 15:04:11;;;;;;;83.18;38.65;;;;;;;-2.24;100.00;102620.63;5036316;28;20076;-52
2022/12/17 15:06:36;;;;;;;82.72;37.65;;;;;;;-2.25;100.00;102618.91;5035105;28;20033;-55
2022/12/17 15:09:03;;;;;;;81.60;35.45;;;;;;;-2.28;100.00;102616.28;5045979;28;20078;-55
2022/12/17 15:11:28;;;;;;;83.28;36.50;;;;;;;-2.25;100.00;102618.00;5046559;28;20254;-52
2022/12/17 15:13:54;;;;;;;79.75;35.20;;;;;;;-2.26;100.00;102619.75;5050979;28;20052;-52
2022/12/17 15:16:19;;;;;;;90.80;37.45;;;;;;;-2.29;100.00;102617.13;5054026;28;20025;-51
2022/12/17 15:18:45;;;;;;;84.10;37.80;;;;;;;-2.31;100.00;102631.88;5053391;28;20040;-53
2022/12/17 15:21:11;;;;;;;81.05;35.65;;;;;;;-2.30;100.00;102633.63;5034851;28;20371;-52
2022/12/17 15:23:41;;;;;;;82.43;37.13;;;;;;;-2.34;100.00;102637.03;5047138;28;20041;-53
2022/12/17 15:26:08;;;;;;;77.78;35.42;;;;;;;-2.36;100.00;102649.19;5054339;28;20033;-51
2022/12/17 15:28:33;;;;;;;86.40;37.45;;;;;;;-2.43;100.00;102640.47;5054526;28;20033;-53
2022/12/17 15:30:59;;;;;;;84.00;36.80;;;;;;;-2.46;100.00;102647.38;5044717;28;20467;-53
2022/12/17 15:33:24;;;;;;;87.50;36.05;;;;;;;-2.46;100.00;102647.38;5053122;28;20041;-52
2022/12/17 15:35:49;;;;;;;84.90;37.95;;;;;;;-2.50;100.00;102645.59;5043208;28;20036;-51
2022/12/17 15:38:15;;;;;;;89.18;39.25;;;;;;;-2.49;100.00;102640.41;5045636;28;20136;-52
2022/12/17 15:40:40;;;;;;;85.72;37.50;;;;;;;-2.46;100.00;102650.00;5048247;28;20025;-53
2022/12/17 15:43:11;;;;;;;91.32;39.10;;;;;;;-2.47;100.00;102654.31;5053031;28;20101;-52
2022/12/17 15:45:42;;;;;;;82.82;36.25;;;;;;;-2.48;100.00;102655.19;5040427;28;20037;-53
2022/12/17 15:48:09;;;;;;;83.53;35.80;;;;;;;-2.46;100.00;102648.25;5054080;28;20146;-53
2022/12/17 15:50:34;;;;;;;87.53;38.40;;;;;;;-2.45;100.00;102651.72;5052812;28;20021;-52
2022/12/17 15:52:59;;;;;;;81.70;36.78;;;;;;;-2.47;100.00;102663.84;5044221;28;20075;-55
2022/12/17 15:55:25;;;;;;;85.80;37.33;;;;;;;-2.49;100.00;102662.97;5039844;28;20479;-51
2022/12/17 15:57:50;;;;;;;83.85;36.40;;;;;;;-2.49;100.00;102666.44;5039529;28;20049;-55
2022/12/17 16:00:16;;;;;;;83.63;35.83;;;;;;;-2.49;100.00;102673.38;5040784;28;20072;-52
2022/12/17 16:02:41;;;;;;;89.82;39.55;;;;;;;-2.51;100.00;102670.75;5041119;28;20044;-55
2022/12/17 16:05:07;;;;;;;77.78;35.38;;;;;;;-2.51;100.00;102677.72;5047332;28;20041;-54
2022/12/17 16:07:32;;;;;;;75.40;35.92;;;;;;;-2.51;100.00;102686.38;5053225;28;20029;-54
2022/12/17 16:09:58;;;;;;;84.35;40.90;;;;;;;-2.50;100.00;102680.31;5035444;28;20459;-53
2022/12/17 16:12:23;;;;;;;83.47;40.25;;;;;;;-2.52;100.00;102674.22;5039910;28;20025;-52
2022/12/17 16:14:48;;;;;;;80.60;35.40;;;;;;;-2.53;100.00;102672.50;5037963;28;20041;-52
2022/12/17 16:17:13;;;;;;;81.80;37.58;;;;;;;-2.52;100.00;102665.56;5033327;28;20044;-55
2022/12/17 16:19:39;;;;;;;85.72;39.10;;;;;;;-2.57;100.00;102667.25;5033955;28;20112;-52
2022/12/17 16:22:04;;;;;;;86.57;38.60;;;;;;;-2.62;100.00;102664.59;5033057;28;20033;-52
2022/12/17 16:24:29;;;;;;;84.18;37.72;;;;;;;-2.68;100.00;102668.03;5046425;28;20372;-51
2022/12/17 16:26:54;;;;;;;88.85;38.38;;;;;;;-2.68;100.00;102670.66;5046495;28;20390;-51
2022/12/17 16:29:20;;;;;;;95.68;38.53;;;;;;;-2.70;100.00;102674.94;5032469;28;20156;-52
2022/12/17 16:31:45;;;;;;;96.32;39.92;;;;;;;-2.76;100.00;102674.00;5040729;28;20037;-54
2022/12/17 16:34:12;;;;;;;90.03;39.85;;;;;;;-2.77;100.00;102674.91;5035090;28;20444;-52
2022/12/17 16:36:37;;;;;;;91.40;38.33;;;;;;;-2.78;100.00;102676.63;5046094;28;20029;-54
2022/12/17 16:39:04;;;;;;;90.65;37.45;;;;;;;-2.82;100.00;102667.91;5046674;28;20059;-52
2022/12/17 16:41:29;;;;;;;89.53;38.35;;;;;;;-2.84;100.00;102671.38;5047202;28;20028;-52
2022/12/17 16:43:54;;;;;;;86.75;39.10;;;;;;;-2.89;100.00;102668.72;5049290;28;20091;-55
2022/12/17 16:46:32;;;;;;;89.45;38.15;;;;;;;-2.89;100.00;102673.94;5043461;28;20033;-54
2022/12/17 16:49:03;;;;;;;87.03;38.13;;;;;;;-2.88;100.00;102669.59;5046551;28;20041;-53
2022/12/17 16:51:28;;;;;;;93.20;39.83;;;;;;;-2.83;100.00;102678.28;5045548;28;20538;-51
2022/12/17 16:53:54;;;;;;;96.78;40.65;;;;;;;-2.85;100.00;102673.13;5047218;28;20041;-54
2022/12/17 16:56:22;;;;;;;94.50;41.22;;;;;;;-2.91;100.00;102686.06;5047363;28;20589;-51
2022/12/17 16:58:48;;;;;;;93.82;38.20;;;;;;;-2.89;100.00;102688.66;5048855;28;20046;-51
2022/12/17 17:01:21;;;;;;;102.35;38.60;;;;;;;-2.89;100.00;102681.72;5044592;28;20033;-53
2022/12/17 17:03:47;;;;;;;95.25;41.15;;;;;;;-2.96;100.00;102682.53;5047734;28;20507;-51
2022/12/17 17:06:13;;;;;;;96.97;39.85;;;;;;;-3.00;100.00;102680.75;5049184;28;20033;-51
2022/12/17 17:08:38;;;;;;;93.20;39.70;;;;;;;-3.06;100.00;102676.38;5049799;28;20048;-52
2022/12/17 17:11:24;;;;;;;86.45;37.40;;;;;;;-3.06;100.00;102681.56;5046898;28;20104;-51
2022/12/17 17:13:51;;;;;;;89.05;37.45;;;;;;;-3.14;100.00;102678.03;5047889;28;20041;-51
2022/12/17 17:16:19;;;;;;;88.32;38.33;;;;;;;-3.18;100.00;102684.94;5047909;28;20060;-53
2022/12/17 17:18:44;;;;;;;88.65;37.85;;;;;;;-3.21;100.00;102691.81;5047613;28;20041;-52
2022/12/17 17:21:19;;;;;;;91.97;37.00;;;;;;;-3.23;100.00;102698.72;5044844;28;20036;-51
2022/12/17 17:23:45;;;;;;;89.95;37.80;;;;;;;-3.28;100.00;102701.28;5046925;28;20049;-52
2022/12/17 17:26:12;;;;;;;97.22;38.10;;;;;;;-3.34;100.00;102706.41;5044942;28;20206;-51
2022/12/17 17:28:37;;;;;;;96.80;40.60;;;;;;;-3.37;100.00;102695.97;5046301;28;20074;-51
2022/12/17 17:31:05;;;;;;;101.10;39.63;;;;;;;-3.39;100.00;102697.69;5048470;28;20063;-50
2022/12/17 17:33:33;;;;;;;104.15;39.00;;;;;;;-3.40;100.00;102702.03;5046098;28;20048;-51
2022/12/17 17:36:06;;;;;;;97.13;38.70;;;;;;;-3.39;100.00;102703.75;5049210;28;20080;-50
2022/12/17 17:38:33;;;;;;;94.15;37.85;;;;;;;-3.39;100.00;102706.34;5040269;28;20048;-51
2022/12/17 17:40:58;;;;;;;103.45;38.90;;;;;;;-3.34;100.00;102709.00;5036686;28;20055;-51
2022/12/17 17:43:24;;;;;;;91.55;36.10;;;;;;;-3.35;100.00;102708.13;5046069;28;20049;-51
2022/12/17 17:45:49;;;;;;;85.25;34.75;;;;;;;-3.35;100.00;102708.13;5046177;28;20041;-50
2022/12/17 17:48:14;;;;;;;88.22;36.50;;;;;;;-3.43;100.00;102712.38;5049422;28;20390;-51
2022/12/17 17:50:40;;;;;;;85.85;35.03;;;;;;;-3.51;100.00;102713.13;5047880;28;20025;-51
2022/12/17 17:53:05;;;;;;;76.82;32.10;;;;;;;-3.59;100.00;102713.91;5045368;28;20433;-53
2022/12/17 17:55:33;;;;;;;80.63;31.98;;;;;;;-3.64;100.00;102710.38;5047425;28;20052;-55
2022/12/17 17:57:58;;;;;;;82.85;33.67;;;;;;;-3.66;100.00;102709.50;5047191;28;20028;-54
2022/12/17 18:00:24;;;;;;;99.72;35.00;;;;;;;-3.69;100.00;102711.19;5045198;28;20045;-51
2022/12/17 18:02:49;;;;;;;75.68;32.92;;;;;;;-3.74;100.00;102711.13;5049809;28;20484;-53
2022/12/17 18:05:14;;;;;;;83.53;35.13;;;;;;;-3.77;100.00;102713.66;5048689;28;20041;-54
2022/12/17 18:07:40;;;;;;;91.03;35.40;;;;;;;-3.77;100.00;102709.34;5047262;28;20029;-53
2022/12/17 18:10:06;;;;;;;81.00;33.70;;;;;;;-3.77;100.00;102713.66;5047096;28;20666;-51
2022/12/17 18:15:15;;;;;;;80.93;33.70;;;;;;;-3.83;100.00;102713.59;5046821;28;20064;-52
2022/12/17 18:17:40;;;;;;;83.30;34.50;;;;;;;-3.85;100.00;102710.09;5046444;28;20021;-54
2022/12/17 18:20:06;;;;;;;111.28;35.78;;;;;;;-3.86;100.00;102710.94;5048354;28;20045;-54
2022/12/17 18:22:31;;;;;;;84.53;34.78;;;;;;;-3.89;100.00;102718.72;5045569;28;20064;-53
2022/12/17 18:24:56;;;;;;;85.05;33.90;;;;;;;-3.90;100.00;102712.63;5047834;28;20037;-52
2022/12/17 18:27:22;;;;;;;81.55;32.78;;;;;;;-3.92;100.00;102714.34;5047691;28;20107;-51
2022/12/17 18:29:47;;;;;;;97.63;35.58;;;;;;;-3.94;100.00;102703.94;5047176;28;20040;-50
2022/12/17 18:32:12;;;;;;;78.28;33.25;;;;;;;-3.94;100.00;102713.44;5046324;28;20021;-54
2022/12/17 18:34:37;;;;;;;86.97;35.03;;;;;;;-3.94;100.00;102706.53;5051157;28;20395;-51
2022/12/17 18:37:04;;;;;;;84.78;34.13;;;;;;;-3.92;100.00;102698.75;5046847;28;20121;-54
2022/12/17 18:39:29;;;;;;;92.47;35.42;;;;;;;-3.89;100.00;102705.72;5044085;28;20080;-53
2022/12/17 18:44:40;;;;;;;84.90;34.20;;;;;;;-3.82;100.00;102707.53;5046346;28;20044;-51
2022/12/17 18:47:06;;;;;;;142.10;55.88;;;;;;;-3.77;100.00;102709.34;5050520;28;20094;-50
2022/12/17 18:49:31;;;;;;;131.35;53.83;;;;;;;-3.73;100.00;102699.84;5051128;28;20475;-51
2022/12/17 18:51:57;;;;;;;99.43;39.33;;;;;;;-3.74;100.00;102706.78;5039775;28;20037;-52
2022/12/17 18:54:27;;;;;;;95.63;39.25;;;;;;;-3.78;100.00;102710.22;5021896;28;20048;-53
2022/12/17 18:56:54;;;;;;;106.85;44.65;;;;;;;-3.81;100.00;102717.09;5052498;28;20025;-51
2022/12/17 18:59:21;;;;;;;98.63;42.47;;;;;;;-3.79;100.00;102715.38;5050585;28;20033;-52
2022/12/17 19:01:47;;;;;;;95.70;38.40;;;;;;;-3.81;100.00;102720.56;5050461;28;20021;-51
2022/12/17 19:04:15;;;;;;;90.38;37.15;;;;;;;-3.81;100.00;102724.88;5049747;28;20060;-51
2022/12/17 19:06:42;;;;;;;87.85;35.28;;;;;;;-3.83;100.00;102718.78;5049182;28;20059;-53
2022/12/17 19:09:14;;;;;;;86.13;35.88;;;;;;;-3.87;100.00;102717.88;5050908;28;20937;-54
2022/12/17 19:11:39;;;;;;;89.28;36.72;;;;;;;-3.90;100.00;102715.22;5047893;28;20036;-50
2022/12/17 19:14:05;;;;;;;88.30;36.90;;;;;;;-3.89;100.00;102732.56;5046183;28;20046;-52
2022/12/17 19:16:30;;;;;;;72.35;33.15;;;;;;;-3.94;100.00;102727.28;5050603;28;20027;-53
2022/12/17 19:19:03;;;;;;;75.40;32.25;;;;;;;-4.00;100.00;102736.72;5047713;28;20459;-50
2022/12/17 19:21:30;;;;;;;69.15;30.88;;;;;;;-4.02;100.00;102738.41;5047997;28;20029;-52
2022/12/17 19:24:01;;;;;;;77.22;33.80;;;;;;;-4.04;100.00;102743.59;5047201;28;20071;-51
2022/12/17 19:26:27;;;;;;;75.75;34.13;;;;;;;-4.04;100.00;102745.31;5049002;28;20043;-51
2022/12/17 19:28:54;;;;;;;75.10;33.53;;;;;;;-4.04;100.00;102755.69;5050005;28;20060;-52
2022/12/17 19:31:22;;;;;;;82.18;34.42;;;;;;;-4.05;100.00;102752.22;5048741;28;20455;-51
2022/12/17 19:33:52;;;;;;;76.82;35.42;;;;;;;-4.06;100.00;102750.47;5045526;28;20030;-54
2022/12/17 19:36:18;;;;;;;;;;;;;;;-4.00;100.00;102754.88;5046704;28;20681;-54
2022/12/17 19:38:44;;;;;;;71.97;31.35;;;;;;;-4.04;100.00;102753.09;5050279;28;19913;-50
2022/12/17 19:41:15;;;;;;;74.63;32.65;;;;;;;-4.04;100.00;102751.38;5050371;28;20110;-54
2022/12/17 19:43:42;;;;;;;73.57;31.58;;;;;;;-4.03;100.00;102750.53;5050458;28;20481;-52
2022/12/17 19:46:11;;;;;;;74.50;33.30;;;;;;;-4.01;100.00;102747.94;5051557;28;20041;-54
2022/12/17 19:48:38;;;;;;;72.22;32.80;;;;;;;-4.06;100.00;102741.81;5045077;28;20407;-51
2022/12/17 19:51:05;;;;;;;76.20;34.60;;;;;;;-4.10;100.00;102743.47;5048373;28;20041;-50
2022/12/17 19:53:32;;;;;;;73.40;32.67;;;;;;;-4.13;100.00;102741.72;5032739;28;20074;-50
2022/12/17 19:56:19;;;;;;;82.30;33.35;;;;;;;-4.14;100.00;102745.16;5046876;28;20040;-49
2022/12/17 19:58:46;;;;;;;74.15;33.88;;;;;;;-4.11;100.00;102752.13;5047857;28;20107;-51
2022/12/17 20:01:14;;;;;;;75.38;32.83;;;;;;;-4.11;100.00;102747.81;5027803;28;20053;-50
2022/12/17 20:03:40;;;;;;;75.03;32.80;;;;;;;-4.14;100.00;102752.09;5052050;28;20062;-49
2022/12/17 20:06:07;;;;;;;85.40;34.65;;;;;;;-4.18;100.00;102752.88;5050063;28;20056;-52
2022/12/17 20:08:33;;;;;;;74.40;33.00;;;;;;;-4.22;100.00;102751.97;5049043;28;20123;-50
2022/12/17 20:11:00;;;;;;;79.28;34.67;;;;;;;-4.21;100.00;102761.50;5049920;28;20540;-50
2022/12/17 20:13:26;;;;;;;78.00;34.38;;;;;;;-4.19;100.00;102771.91;5044121;28;20091;-51
2022/12/17 20:16:03;;;;;;;79.57;35.08;;;;;;;-4.15;100.00;102769.34;5048673;28;20045;-50
2022/12/17 20:18:29;;;;;;;75.10;34.38;;;;;;;-4.11;100.00;102775.50;5042503;28;20025;-48
2022/12/17 20:21:05;;;;;;;77.35;34.10;;;;;;;-4.07;100.00;102781.59;5044955;28;20453;-49
2022/12/17 20:23:31;;;;;;;73.72;34.05;;;;;;;-4.10;100.00;102780.72;5057114;28;20391;-53
2022/12/17 20:26:04;;;;;;;75.95;33.60;;;;;;;-4.06;100.00;102785.94;5048218;28;20037;-50
2022/12/17 20:28:29;;;;;;;75.10;32.97;;;;;;;-4.06;100.00;102783.31;5048340;28;20032;-53
2022/12/17 20:30:54;;;;;;;72.55;31.70;;;;;;;-4.06;100.00;102776.44;5047075;28;20125;-53
2022/12/17 20:33:20;;;;;;;68.25;31.63;;;;;;;-4.04;100.00;102773.88;5051103;28;20471;-51
2022/12/17 20:35:45;;;;;;;69.07;33.28;;;;;;;-4.05;100.00;102772.97;5046340;28;20061;-51
2022/12/17 20:38:10;;;;;;;68.10;31.20;;;;;;;-4.02;100.00;102764.38;5051126;28;20550;-51
2022/12/17 20:40:38;;;;;;;73.07;33.17;;;;;;;-4.04;100.00;102764.34;5048486;28;20167;-49
2022/12/17 20:43:03;;;;;;;78.82;34.97;;;;;;;-4.04;100.00;102766.09;5048504;28;20476;-49
2022/12/17 20:45:28;;;;;;;80.78;34.72;;;;;;;-4.05;100.00;102760.00;5046926;28;20040;-53
2022/12/17 20:47:54;;;;;;;75.18;34.30;;;;;;;-4.04;100.00;102761.75;5047308;28;20033;-50
2022/12/17 20:50:19;;;;;;;83.50;36.85;;;;;;;-4.03;100.00;102758.31;5047159;28;20122;-54
2022/12/17 20:52:44;;;;;;;88.93;37.50;;;;;;;-4.02;100.00;102756.59;5050697;28;20035;-53
2022/12/17 20:55:10;;;;;;;83.85;33.88;;;;;;;-4.01;100.00;102756.63;5045183;28;20484;-51
2022/12/17 20:57:35;;;;;;;80.18;36.65;;;;;;;-4.01;100.00;102761.81;5044188;28;20025;-51
2022/12/17 21:00:00;;;;;;;84.50;33.88;;;;;;;-4.03;100.00;102758.31;5046339;28;20094;-52
2022/12/17 21:02:25;;;;;;;83.22;34.33;;;;;;;-4.02;100.00;102754.84;5044658;28;20029;-50
2022/12/17 21:04:51;;;;;;;76.38;33.67;;;;;;;-4.04;100.00;102761.75;5048117;28;20094;-51
2022/12/17 21:07:16;;;;;;;74.43;33.75;;;;;;;-4.06;100.00;102765.16;5046567;28;20430;-49
2022/12/17 21:09:41;;;;;;;68.72;33.00;;;;;;;-4.07;100.00;102766.03;5048022;28;20036;-49
2022/12/17 21:12:08;;;;;;;76.45;33.45;;;;;;;-4.10;100.00;102761.66;5046159;28;20075;-50
2022/12/17 21:14:33;;;;;;;74.57;32.13;;;;;;;-4.11;100.00;102758.19;5046723;28;20048;-51
2022/12/17 21:16:58;;;;;;;76.47;32.85;;;;;;;-4.09;100.00;102766.88;5045664;28;20025;-50
2022/12/17 21:19:25;;;;;;;73.07;35.13;;;;;;;-4.07;100.00;102766.03;5045481;28;20467;-52
2022/12/17 21:21:51;;;;;;;72.53;34.13;;;;;;;-4.10;100.00;102761.66;5047658;28;20343;-50
2022/12/17 21:24:16;;;;;;;66.80;31.63;;;;;;;-4.14;100.00;102768.53;5048531;28;20479;-51
2022/12/17 21:26:43;;;;;;;68.30;32.13;;;;;;;-4.16;100.00;102764.19;5049354;28;20060;-50
2022/12/17 21:29:09;;;;;;;69.18;31.80;;;;;;;-4.18;100.00;102765.84;5046533;28;20033;-50
2022/12/17 21:31:40;;;;;;;71.05;31.85;;;;;;;-4.21;100.00;102774.47;5044962;28;20033;-53
2022/12/17 21:34:10;;;;;;;71.38;32.40;;;;;;;-4.24;100.00;102771.81;5048346;28;20028;-52
2022/12/17 21:36:35;;;;;;;68.05;32.17;;;;;;;-4.24;100.00;102771.81;5046740;28;20061;-50
2022/12/17 21:39:03;;;;;;;76.82;35.55;;;;;;;-4.22;100.00;102770.13;5049077;28;20438;-50
2022/12/17 21:41:32;;;;;;;68.63;31.38;;;;;;;-4.22;100.00;102774.44;5042207;28;20044;-54
2022/12/17 21:44:00;;;;;;;70.68;30.73;;;;;;;-4.25;100.00;102777.84;5048226;28;20431;-51
2022/12/17 21:46:27;;;;;;;71.65;33.13;;;;;;;-4.24;100.00;102778.75;5044912;28;20537;-53
2022/12/17 21:48:53;;;;;;;63.88;32.88;;;;;;;-4.27;100.00;102777.81;5044057;28;21391;-50
2022/12/17 21:51:19;;;;;;;65.65;32.20;;;;;;;-4.28;100.00;102776.09;5047167;28;20072;-53
2022/12/17 21:53:45;;;;;;;64.32;30.42;;;;;;;-4.25;100.00;102782.19;5049176;28;20021;-50
2022/12/17 21:56:13;;;;;;;61.42;28.83;;;;;;;-4.24;100.00;102782.22;5047640;28;20383;-50
2022/12/17 21:58:39;;;;;;;63.50;29.90;;;;;;;-4.27;100.00;102790.81;5037160;28;20063;-51
2022/12/17 22:01:11;;;;;;;62.35;31.17;;;;;;;-4.30;100.00;102792.47;5033194;28;20054;-51
2022/12/17 22:03:37;;;;;;;65.53;30.02;;;;;;;-4.29;100.00;102791.63;5047439;28;20086;-51
2022/12/17 22:06:08;;;;;;;64.43;30.42;;;;;;;-4.28;100.00;102791.66;5049066;28;20041;-53
2022/12/17 22:08:34;;;;;;;59.42;29.20;;;;;;;-4.24;100.00;102791.72;5049181;28;20072;-51
2022/12/17 22:11:07;;;;;;;58.10;28.83;;;;;;;-4.23;100.00;102793.44;5048052;28;20069;-54
2022/12/17 22:16:16;;;;;;;63.20;31.17;;;;;;;-4.19;100.00;102803.91;5049207;28;20067;-52
2022/12/17 22:18:41;;;;;;;62.13;30.45;;;;;;;-4.22;100.00;102801.25;5049308;28;20522;-52
2022/12/17 22:21:07;;;;;;;60.03;29.88;;;;;;;-4.21;100.00;102813.41;5050912;28;20052;-50
2022/12/17 22:23:32;;;;;;;61.63;29.13;;;;;;;-4.21;100.00;102812.50;5049794;28;20587;-54
2022/12/17 22:25:57;;;;;;;61.38;30.13;;;;;;;-4.21;100.00;102821.19;5050556;28;20053;-51
2022/12/17 22:28:23;;;;;;;60.85;30.20;;;;;;;-4.22;100.00;102823.75;5048864;28;20029;-49
2022/12/17 22:33:32;;;;;;;59.70;28.42;;;;;;;-4.24;100.00;102820.25;5051410;28;20375;-51
2022/12/17 22:36:00;;;;;;;57.65;29.58;;;;;;;-4.27;100.00;102808.97;5053122;28;20045;-50
2022/12/17 22:38:26;;;;;;;56.05;29.67;;;;;;;-4.27;100.00;102813.28;5063819;28;20021;-53
2022/12/17 22:40:51;;;;;;;48.60;27.60;;;;;;;-4.29;100.00;102810.66;5050859;28;20341;-52
2022/12/17 22:43:29;;;;;;;51.80;27.45;;;;;;;-4.32;100.00;102805.41;5051321;28;20493;-52
2022/12/17 22:45:59;;;;;;;49.72;25.48;;;;;;;-4.34;100.00;102796.75;5041004;28;20467;-49
2022/12/17 22:48:24;;;;;;;50.55;26.25;;;;;;;-4.36;100.00;102792.41;5047294;28;20071;-52
2022/12/17 22:50:50;;;;;;;50.30;26.63;;;;;;;-4.37;100.00;102793.22;5052180;28;20442;-52
2022/12/17 22:53:15;;;;;;;49.70;27.60;;;;;;;-4.40;100.00;102798.38;5054299;28;20071;-50
2022/12/17 22:55:40;;;;;;;48.20;25.38;;;;;;;-4.41;100.00;102805.28;5054531;28;20013;-50
2022/12/17 22:58:06;;;;;;;58.25;28.33;;;;;;;-4.45;100.00;102803.47;5053499;28;20070;-52
2022/12/17 23:00:33;;;;;;;54.28;29.15;;;;;;;-4.49;100.00;102801.69;5052061;28;20390;-53
2022/12/17 23:02:59;;;;;;;68.30;35.88;;;;;;;-4.55;100.00;102801.56;5054764;28;20029;-50
2022/12/17 23:05:26;;;;;;;132.05;65.45;;;;;;;-4.59;100.00;102803.22;5054067;28;20429;-50
2022/12/17 23:07:52;;;;;;;67.30;34.25;;;;;;;-4.60;100.00;102809.25;5055213;28;20515;-50
2022/12/17 23:10:18;;;;;;;57.88;28.95;;;;;;;-4.62;100.00;102815.28;5054769;28;20064;-49
2022/12/17 23:12:50;;;;;;;55.45;29.27;;;;;;;-4.65;100.00;102804.00;5049356;28;20112;-49
2022/12/17 23:15:24;;;;;;;52.10;27.95;;;;;;;-4.65;100.00;102784.97;5054253;28;20067;-53
2022/12/17 23:17:51;;;;;;;57.85;30.10;;;;;;;-4.66;100.00;102783.22;5052600;28;20044;-50
2022/12/17 23:20:16;;;;;;;52.38;30.00;;;;;;;-4.70;99.94;102771.03;5053382;28;20021;-52
2022/12/17 23:22:42;;;;;;;60.78;32.33;;;;;;;-4.73;99.97;102766.69;5052613;28;20383;-53
2022/12/17 23:25:08;;;;;;;56.40;32.63;;;;;;;-4.76;99.80;102766.63;5053861;28;20036;-53
2022/12/17 23:27:33;;;;;;;57.88;31.15;;;;;;;-4.79;99.70;102773.50;5052223;28;20047;-51
2022/12/17 23:29:59;;;;;;;49.92;28.42;;;;;;;-4.82;99.72;102781.19;5041786;28;20025;-51
2022/12/17 23:32:24;;;;;;;56.10;29.42;;;;;;;-4.85;99.70;102777.69;5050482;28;20028;-50
2022/12/17 23:34:49;;;;;;;54.20;28.40;;;;;;;-4.87;99.72;102781.97;5052131;28;20024;-49
2022/12/17 23:37:15;;;;;;;51.42;27.58;;;;;;;-4.88;100.00;102776.75;5052590;28;20037;-53
2022/12/17 23:39:40;;;;;;;53.38;27.58;;;;;;;-4.88;99.97;102776.75;5053470;28;20029;-48
2022/12/17 23:42:05;;;;;;;49.50;27.70;;;;;;;-4.89;99.90;102785.41;5052731;28;20116;-50
2022/12/17 23:44:31;;;;;;;57.90;31.05;;;;;;;-4.90;100.00;102788.81;5053237;28;20363;-50
2022/12/17 23:46:56;;;;;;;50.75;26.73;;;;;;;-4.93;99.50;102791.34;5051206;28;20370;-49
2022/12/17 23:49:21;;;;;;;50.90;26.90;;;;;;;-4.96;98.88;102793.88;5053215;28;20083;-51
2022/12/17 23:51:46;;;;;;;50.72;27.52;;;;;;;-4.99;99.60;102796.44;5052826;28;20507;-49
2022/12/17 23:54:12;;;;;;;51.83;28.08;;;;;;;-5.04;98.91;102802.38;5052509;28;20036;-49
2022/12/17 23:56:37;;;;;;;54.90;28.10;;;;;;;-5.07;99.24;102802.31;5053027;28;20024;-50
2022/12/17 23:59:02;;;;;;;48.25;26.73;;;;;;;-5.07;99.01;102796.28;5053416;28;20017;-48
